createdAt,value
2018-09-25T00:01:55.935Z,7.70
2018-09-25T00:04:29.971Z,6.13
2018-09-25T00:07:04.435Z,4.17
2018-09-25T00:09:38.381Z,6.40
2018-09-25T00:12:11.865Z,7.20
2018-09-25T00:14:45.096Z,3.77
2018-09-25T00:17:18.595Z,8.30
2018-09-25T00:19:52.246Z,6.77
2018-09-25T00:22:25.442Z,4.60
2018-09-25T00:24:59.672Z,7.60
2018-09-25T00:27:32.903Z,5.60
2018-09-25T00:30:06.119Z,7.40
2018-09-25T00:32:39.243Z,6.30
2018-09-25T00:35:12.430Z,4.23
2018-09-25T00:37:45.591Z,6.97
2018-09-25T00:40:18.738Z,5.03
2018-09-25T00:42:51.832Z,7.90
2018-09-25T00:45:25.611Z,5.40
2018-09-25T00:47:58.860Z,5.20
2018-09-25T00:50:32.109Z,8.70
2018-09-25T00:53:05.244Z,3.57
2018-09-25T00:55:38.478Z,3.77
2018-09-25T00:58:11.562Z,4.27
2018-09-25T01:00:44.808Z,7.30
2018-09-25T01:03:18.249Z,9.30
2018-09-25T01:05:51.374Z,6.97
2018-09-25T01:08:24.607Z,7.60
2018-09-25T01:10:57.796Z,4.27
2018-09-25T01:13:30.977Z,4.13
2018-09-25T01:16:04.701Z,6.97
2018-09-25T01:18:37.892Z,4.30
2018-09-25T01:21:11.100Z,5.33
2018-09-25T01:23:44.246Z,5.80
2018-09-25T01:26:17.512Z,10.27
2018-09-25T01:28:50.680Z,4.57
2018-09-25T01:31:23.731Z,9.20
2018-09-25T01:33:57.037Z,8.30
2018-09-25T01:36:30.762Z,5.60
2018-09-25T01:39:03.922Z,2.90
2018-09-25T01:41:37.245Z,5.93
2018-09-25T01:44:10.419Z,5.27
2018-09-25T01:46:43.673Z,13.27
2018-09-25T01:49:16.844Z,26.13
2018-09-25T01:51:50.061Z,6.93
2018-09-25T01:54:23.184Z,11.73
2018-09-25T01:56:56.357Z,5.97
2018-09-25T01:59:29.473Z,8.90
2018-09-25T02:02:02.806Z,5.53
2018-09-25T02:04:36.071Z,12.43
2018-09-25T02:07:09.175Z,3.50
2018-09-25T02:09:42.367Z,4.67
2018-09-25T02:12:15.525Z,12.23
2018-09-25T02:14:48.765Z,14.40
2018-09-25T02:17:21.856Z,15.50
2018-09-25T02:19:55.137Z,5.93
2018-09-25T02:22:28.497Z,12.27
2018-09-25T02:25:02.211Z,8.53
2018-09-25T02:27:35.474Z,5.60
2018-09-25T02:30:08.651Z,5.33
2018-09-25T02:32:41.809Z,5.90
2018-09-25T02:35:15.605Z,6.67
2018-09-25T02:37:48.884Z,6.97
2018-09-25T02:40:22.099Z,8.70
2018-09-25T02:42:55.135Z,7.50
2018-09-25T02:45:28.392Z,5.77
2018-09-25T02:48:01.565Z,4.43
2018-09-25T02:50:34.751Z,5.20
2018-09-25T02:53:07.761Z,5.53
2018-09-25T02:55:42.340Z,6.30
2018-09-25T02:58:15.541Z,7.50
2018-09-25T03:00:48.623Z,10.17
2018-09-25T03:03:21.773Z,7.27
2018-09-25T03:05:55.038Z,12.47
2018-09-25T03:08:28.254Z,3.00
2018-09-25T03:11:01.433Z,12.93
2018-09-25T03:13:34.633Z,9.10
2018-09-25T03:16:07.801Z,8.67
2018-09-25T03:18:41.133Z,8.67
2018-09-25T03:21:14.211Z,7.83
2018-09-25T03:23:47.537Z,8.27
2018-09-25T03:26:20.693Z,7.70
2018-09-25T03:28:54.023Z,5.73
2018-09-25T03:31:27.421Z,5.20
2018-09-25T03:34:00.695Z,8.70
2018-09-25T03:36:33.890Z,5.57
2018-09-25T03:39:07.112Z,7.83
2018-09-25T03:41:40.360Z,14.40
2018-09-25T03:44:13.778Z,8.00
2018-09-25T03:46:46.976Z,5.47
2018-09-25T03:49:20.238Z,7.23
2018-09-25T03:51:53.324Z,8.10
2018-09-25T03:54:26.783Z,5.77
2018-09-25T03:57:00.440Z,7.37
2018-09-25T03:59:33.625Z,9.40
2018-09-25T04:02:06.825Z,14.07
2018-09-25T04:04:40.553Z,7.73
2018-09-25T04:07:13.747Z,15.00
2018-09-25T04:09:46.800Z,12.30
2018-09-25T04:12:20.352Z,12.07
2018-09-25T04:14:53.491Z,11.77
2018-09-25T04:17:26.776Z,12.30
2018-09-25T04:19:59.974Z,8.53
2018-09-25T04:22:33.261Z,11.20
2018-09-25T04:25:06.493Z,24.43
2018-09-25T04:27:39.742Z,11.40
2018-09-25T04:30:13.073Z,10.27
2018-09-25T04:32:46.155Z,12.30
2018-09-25T04:35:19.288Z,18.87
2018-09-25T04:37:52.453Z,16.83
2018-09-25T04:40:25.453Z,10.33
2018-09-25T04:42:58.731Z,10.53
2018-09-25T04:45:31.898Z,6.40
2018-09-25T04:48:10.103Z,10.47
2018-09-25T04:50:43.283Z,12.40
2018-09-25T04:53:16.534Z,6.97
2018-09-25T04:55:49.565Z,9.10
2018-09-25T04:58:22.574Z,9.53
2018-09-25T05:00:55.872Z,10.10
2018-09-25T05:03:28.986Z,17.00
2018-09-25T05:06:02.067Z,87.17
2018-09-25T05:08:35.271Z,7.13
2018-09-25T05:11:08.465Z,20.60
2018-09-25T05:13:41.656Z,17.30
2018-09-25T05:16:14.915Z,16.10
2018-09-25T05:18:48.107Z,18.80
2018-09-25T05:21:21.274Z,11.17
2018-09-25T05:23:56.628Z,15.80
2018-09-25T05:26:29.920Z,15.50
2018-09-25T05:29:02.994Z,14.20
2018-09-25T05:31:36.112Z,16.13
2018-09-25T05:34:09.274Z,13.63
2018-09-25T05:36:42.511Z,18.00
2018-09-25T05:39:15.663Z,17.40
2018-09-25T05:41:49.561Z,23.57
2018-09-25T05:44:22.718Z,28.63
2018-09-25T05:46:56.901Z,26.73
2018-09-25T05:49:30.320Z,23.00
2018-09-25T05:52:03.494Z,18.13
2018-09-25T05:54:36.596Z,17.70
2018-09-25T05:57:09.772Z,17.27
2018-09-25T05:59:42.894Z,12.10
2018-09-25T06:02:16.193Z,19.30
2018-09-25T06:04:49.336Z,21.87
2018-09-25T06:07:22.757Z,17.93
2018-09-25T06:09:55.982Z,15.13
2018-09-25T06:12:29.127Z,19.27
2018-09-25T06:15:02.295Z,31.97
2018-09-25T06:17:35.544Z,8.57
2018-09-25T06:20:09.372Z,24.37
2018-09-25T06:22:43.073Z,21.10
2018-09-25T06:25:16.247Z,14.33
2018-09-25T06:27:49.959Z,16.33
2018-09-25T06:30:23.234Z,9.80
2018-09-25T06:32:56.528Z,19.30
2018-09-25T06:35:29.703Z,13.87
2018-09-25T06:38:02.905Z,15.50
2018-09-25T06:40:36.068Z,11.40
2018-09-25T06:43:10.322Z,15.40
2018-09-25T06:45:43.519Z,15.80
2018-09-25T06:48:16.724Z,21.87
2018-09-25T06:50:49.982Z,18.30
2018-09-25T06:53:23.145Z,11.43
2018-09-25T06:55:56.303Z,13.93
2018-09-25T06:58:29.733Z,22.87
2018-09-25T07:01:03.065Z,19.97
2018-09-25T07:03:36.176Z,16.47
2018-09-25T07:06:09.407Z,15.70
2018-09-25T07:08:43.193Z,15.73
2018-09-25T07:11:16.359Z,19.03
2018-09-25T07:13:49.472Z,49.90
2018-09-25T07:16:22.685Z,17.90
2018-09-25T07:18:55.671Z,47.13
2018-09-25T07:21:28.620Z,52.67
2018-09-25T07:24:01.654Z,31.87
2018-09-25T07:26:34.917Z,14.43
2018-09-25T07:29:08.130Z,10.93
2018-09-25T07:31:41.333Z,16.30
2018-09-25T07:34:14.531Z,9.13
2018-09-25T07:36:47.678Z,10.30
2018-09-25T07:39:28.471Z,7.57
2018-09-25T07:42:01.518Z,13.57
2018-09-25T07:44:34.674Z,16.57
2018-09-25T07:47:08.023Z,24.10
2018-09-25T07:49:41.242Z,25.00
2018-09-25T07:52:14.401Z,20.77
2018-09-25T07:54:47.542Z,25.30
2018-09-25T07:57:20.779Z,16.50
2018-09-25T07:59:54.119Z,19.50
2018-09-25T08:02:27.299Z,16.03
2018-09-25T08:05:00.505Z,18.70
2018-09-25T08:07:33.697Z,10.40
2018-09-25T08:10:07.251Z,16.63
2018-09-25T08:12:40.354Z,12.70
2018-09-25T08:15:13.645Z,19.87
2018-09-25T08:17:46.714Z,13.60
2018-09-25T08:20:19.921Z,26.67
2018-09-25T08:22:53.141Z,10.60
2018-09-25T08:25:27.118Z,12.23
2018-09-25T08:28:00.404Z,9.13
2018-09-25T08:30:33.640Z,13.63
2018-09-25T08:33:06.831Z,8.13
2018-09-25T08:35:40.118Z,9.73
2018-09-25T08:38:13.287Z,9.53
2018-09-25T08:40:46.496Z,18.37
2018-09-25T08:43:19.672Z,7.60
2018-09-25T08:45:53.006Z,9.43
2018-09-25T08:48:26.295Z,4.70
2018-09-25T08:51:00.062Z,8.80
2018-09-25T08:53:33.447Z,8.47
2018-09-25T08:56:06.577Z,10.90
2018-09-25T08:58:39.735Z,100.10
2018-09-25T09:01:12.948Z,80.60
2018-09-25T09:03:46.108Z,190.67
2018-09-25T09:06:19.604Z,389.40
2018-09-25T09:08:52.796Z,267.23
2018-09-25T09:11:25.922Z,391.60
2018-09-25T09:13:59.136Z,19.87
2018-09-25T09:16:32.352Z,23.43
2018-09-25T09:19:06.030Z,13.00
2018-09-25T09:21:39.050Z,10.20
2018-09-25T09:24:12.224Z,22.00
2018-09-25T09:26:45.385Z,8.40
2018-09-25T09:29:18.876Z,9.37
2018-09-25T09:31:52.044Z,9.17
2018-09-25T09:34:25.259Z,7.10
2018-09-25T09:36:58.603Z,7.07
2018-09-25T09:39:31.734Z,11.13
2018-09-25T09:42:05.080Z,17.50
2018-09-25T09:44:38.022Z,11.50
2018-09-25T09:47:11.254Z,8.10
2018-09-25T09:49:44.441Z,16.60
2018-09-25T09:52:17.633Z,11.87
2018-09-25T09:54:50.737Z,16.07
2018-09-25T09:57:23.919Z,13.70
2018-09-25T09:59:56.867Z,6.90
2018-09-25T10:02:29.996Z,5.80
2018-09-25T10:05:03.176Z,23.60
2018-09-25T10:07:36.297Z,10.27
2018-09-25T10:10:09.415Z,8.57
2018-09-25T10:12:44.199Z,4.30
2018-09-25T10:15:17.684Z,9.87
2018-09-25T10:17:50.846Z,4.40
2018-09-25T10:20:23.985Z,8.40
2018-09-25T10:22:57.356Z,16.77
2018-09-25T10:25:30.663Z,15.23
2018-09-25T10:28:03.843Z,9.87
2018-09-25T10:30:36.932Z,9.73
2018-09-25T10:33:10.652Z,10.23
2018-09-25T10:35:43.941Z,8.10
2018-09-25T10:38:17.070Z,16.97
2018-09-25T10:40:50.216Z,21.10
2018-09-25T10:43:23.338Z,13.53
2018-09-25T10:45:56.503Z,11.17
2018-09-25T10:48:29.715Z,16.67
2018-09-25T10:51:02.779Z,56.53
2018-09-25T10:53:36.074Z,16.17
2018-09-25T10:56:09.276Z,13.63
2018-09-25T10:58:42.456Z,10.30
2018-09-25T11:01:15.559Z,15.90
2018-09-25T11:03:48.794Z,14.37
2018-09-25T11:06:21.943Z,10.50
2018-09-25T11:08:55.642Z,5.70
2018-09-25T11:11:29.278Z,13.23
2018-09-25T11:14:02.370Z,8.97
2018-09-25T11:16:35.515Z,8.87
2018-09-25T11:19:08.755Z,8.03
2018-09-25T11:21:41.892Z,7.77
2018-09-25T11:24:15.094Z,6.37
2018-09-25T11:26:48.295Z,9.53
2018-09-25T11:29:21.930Z,8.67
2018-09-25T11:31:55.130Z,5.30
2018-09-25T11:34:28.415Z,5.10
2018-09-25T11:37:01.585Z,4.93
2018-09-25T11:39:35.022Z,8.33
2018-09-25T11:42:08.188Z,4.83
2018-09-25T11:44:41.955Z,4.50
2018-09-25T11:47:15.453Z,3.13
2018-09-25T11:49:49.104Z,5.17
2018-09-25T11:52:22.341Z,7.10
2018-09-25T11:54:55.693Z,9.83
2018-09-25T11:57:28.953Z,3.13
2018-09-25T12:00:02.201Z,3.03
2018-09-25T12:02:35.382Z,2.03
2018-09-25T12:05:08.475Z,2.90
2018-09-25T12:07:41.792Z,4.10
2018-09-25T12:10:14.946Z,8.67
2018-09-25T12:12:48.288Z,8.83
2018-09-25T12:15:22.053Z,6.30
2018-09-25T12:17:55.343Z,5.87
2018-09-25T12:20:28.620Z,3.70
2018-09-25T12:23:01.840Z,6.83
2018-09-25T12:25:35.003Z,7.47
2018-09-25T12:28:08.230Z,5.43
2018-09-25T12:30:41.615Z,6.27
2018-09-25T12:33:15.221Z,2.13
2018-09-25T12:35:48.929Z,3.87
2018-09-25T12:38:22.114Z,5.30
2018-09-25T12:40:55.336Z,5.20
2018-09-25T12:43:28.501Z,4.93
2018-09-25T12:46:01.596Z,3.70
2018-09-25T12:48:34.686Z,5.33
2018-09-25T12:51:07.856Z,7.57
2018-09-25T12:53:41.329Z,10.73
2018-09-25T12:56:14.611Z,2.53
2018-09-25T12:58:48.841Z,6.63
2018-09-25T13:01:22.170Z,3.07
2018-09-25T13:03:55.418Z,7.60
2018-09-25T13:06:29.069Z,3.93
2018-09-25T13:09:02.254Z,3.73
2018-09-25T13:11:35.942Z,5.43
2018-09-25T13:14:09.077Z,3.67
2018-09-25T13:16:42.277Z,4.33
2018-09-25T13:19:15.441Z,6.30
2018-09-25T13:21:49.267Z,4.63
2018-09-25T13:24:22.393Z,6.67
2018-09-25T13:26:55.324Z,9.00
2018-09-25T13:29:28.597Z,6.30
2018-09-25T13:32:01.961Z,6.63
2018-09-25T13:34:35.020Z,5.07
2018-09-25T13:37:08.791Z,8.10
2018-09-25T13:39:42.072Z,3.90
2018-09-25T13:42:15.167Z,3.40
2018-09-25T13:44:48.370Z,8.57
2018-09-25T13:47:21.666Z,4.57
2018-09-25T13:49:54.616Z,4.47
2018-09-25T13:52:27.864Z,4.37
2018-09-25T13:55:01.165Z,12.77
2018-09-25T13:57:34.242Z,6.70
2018-09-25T14:00:07.544Z,5.00
2018-09-25T14:02:40.779Z,4.90
2018-09-25T14:05:13.991Z,4.60
2018-09-25T14:07:47.131Z,3.23
2018-09-25T14:10:20.145Z,5.20
2018-09-25T14:12:53.223Z,5.80
2018-09-25T14:15:26.444Z,7.13
2018-09-25T14:17:59.521Z,10.23
2018-09-25T14:20:32.638Z,7.40
2018-09-25T14:23:06.831Z,13.07
2018-09-25T14:25:40.018Z,5.93
2018-09-25T14:28:13.200Z,4.70
2018-09-25T14:30:46.151Z,4.77
2018-09-25T14:33:19.467Z,5.70
2018-09-25T14:35:52.763Z,7.23
2018-09-25T14:38:27.171Z,7.87
2018-09-25T14:41:00.340Z,7.67
2018-09-25T14:43:33.560Z,10.30
2018-09-25T14:46:06.784Z,11.10
2018-09-25T14:48:40.150Z,7.03
2018-09-25T14:51:13.280Z,3.73
2018-09-25T14:53:46.372Z,4.77
2018-09-25T14:56:19.556Z,8.00
2018-09-25T14:58:52.814Z,11.47
2018-09-25T15:01:26.055Z,13.53
2018-09-25T15:03:59.927Z,9.10
2018-09-25T15:06:33.106Z,3.60
2018-09-25T15:09:06.279Z,8.40
2018-09-25T15:11:39.478Z,3.00
2018-09-25T15:14:12.698Z,13.50
2018-09-25T15:16:45.993Z,9.40
2018-09-25T15:19:19.421Z,7.40
2018-09-25T15:21:52.766Z,12.77
2018-09-25T15:24:25.723Z,10.77
2018-09-25T15:26:58.924Z,9.00
2018-09-25T15:29:32.117Z,16.07
2018-09-25T15:32:05.216Z,9.37
2018-09-25T15:34:38.441Z,9.87
2018-09-25T15:37:11.619Z,7.57
2018-09-25T15:39:44.893Z,9.03
2018-09-25T15:42:18.075Z,12.93
2018-09-25T15:44:51.213Z,17.40
2018-09-25T15:47:27.939Z,25.80
2018-09-25T15:50:01.071Z,18.73
2018-09-25T15:52:34.125Z,11.17
2018-09-25T15:55:07.788Z,11.10
2018-09-25T15:57:40.945Z,11.03
2018-09-25T16:00:14.060Z,14.03
2018-09-25T16:02:47.303Z,21.27
2018-09-25T16:05:20.514Z,11.17
2018-09-25T16:07:53.614Z,10.47
2018-09-25T16:10:26.675Z,14.90
2018-09-25T16:12:59.791Z,13.80
2018-09-25T16:15:32.918Z,12.87
2018-09-25T16:18:06.137Z,17.77
2018-09-25T16:20:39.263Z,8.23
2018-09-25T16:23:12.343Z,10.70
2018-09-25T16:25:46.020Z,8.27
2018-09-25T16:28:19.055Z,15.87
2018-09-25T16:30:52.774Z,11.70
2018-09-25T16:33:26.186Z,9.67
2018-09-25T16:35:59.347Z,7.90
2018-09-25T16:38:32.509Z,5.00
2018-09-25T16:41:05.793Z,12.67
2018-09-25T16:43:38.887Z,14.17
2018-09-25T16:46:12.098Z,12.10
2018-09-25T16:48:45.284Z,11.07
2018-09-25T16:51:18.463Z,18.47
2018-09-25T16:53:51.920Z,13.27
2018-09-25T16:56:25.653Z,14.37
2018-09-25T16:58:58.780Z,17.33
2018-09-25T17:01:32.075Z,17.50
2018-09-25T17:04:05.760Z,15.23
2018-09-25T17:06:39.716Z,6.70
2018-09-25T17:09:12.969Z,8.43
2018-09-25T17:11:46.110Z,10.97
2018-09-25T17:14:19.373Z,14.70
2018-09-25T17:16:52.657Z,6.10
2018-09-25T17:19:25.925Z,11.10
2018-09-25T17:21:59.067Z,21.33
2018-09-25T17:24:33.267Z,7.73
2018-09-25T17:27:06.482Z,19.30
2018-09-25T17:29:39.841Z,11.87
2018-09-25T17:32:12.934Z,5.10
2018-09-25T17:34:46.422Z,13.20
2018-09-25T17:37:23.557Z,5.77
2018-09-25T17:39:57.030Z,8.20
2018-09-25T17:42:30.894Z,5.87
2018-09-25T17:45:04.210Z,16.87
2018-09-25T17:47:37.477Z,17.70
2018-09-25T17:50:11.262Z,8.77
2018-09-25T17:52:44.533Z,8.90
2018-09-25T17:55:17.617Z,5.50
2018-09-25T17:57:50.895Z,6.33
2018-09-25T18:00:24.131Z,7.40
2018-09-25T18:02:57.420Z,5.97
2018-09-25T18:05:30.735Z,5.63
2018-09-25T18:08:03.930Z,7.57
2018-09-25T18:10:37.134Z,7.60
2018-09-25T18:13:10.424Z,5.70
2018-09-25T18:15:43.693Z,4.80
2018-09-25T18:18:17.141Z,7.97
2018-09-25T18:20:50.527Z,2.80
2018-09-25T18:23:23.880Z,2.93
2018-09-25T18:25:57.297Z,6.70
2018-09-25T18:28:30.480Z,8.07
2018-09-25T18:31:03.640Z,5.53
2018-09-25T18:33:37.139Z,5.30
2018-09-25T18:36:10.807Z,8.37
2018-09-25T18:38:43.891Z,3.77
2018-09-25T18:41:17.144Z,3.60
2018-09-25T18:43:50.295Z,3.17
2018-09-25T18:46:23.518Z,9.07
2018-09-25T18:48:56.802Z,7.20
2018-09-25T18:51:30.012Z,3.73
2018-09-25T18:54:03.260Z,12.03
2018-09-25T18:56:36.490Z,8.53
2018-09-25T18:59:09.682Z,10.00
2018-09-25T19:01:42.989Z,12.70
2018-09-25T19:04:16.142Z,17.43
2018-09-25T19:06:49.544Z,10.20
2018-09-25T19:09:22.845Z,21.17
2018-09-25T19:11:55.931Z,9.60
2018-09-25T19:14:29.238Z,5.27
2018-09-25T19:17:02.322Z,9.50
2018-09-25T19:19:35.624Z,7.93
2018-09-25T19:22:09.940Z,8.13
2018-09-25T19:24:43.280Z,12.43
2018-09-25T19:27:16.356Z,13.13
2018-09-25T19:29:49.403Z,10.63
2018-09-25T19:32:22.598Z,12.70
2018-09-25T19:34:55.647Z,15.87
2018-09-25T19:37:28.804Z,3.37
2018-09-25T19:40:02.091Z,17.90
2018-09-25T19:42:35.700Z,52.57
2018-09-25T19:45:08.872Z,16.60
2018-09-25T19:47:42.096Z,15.90
2018-09-25T19:50:15.290Z,19.50
2018-09-25T19:52:48.487Z,12.20
2018-09-25T19:55:21.662Z,15.83
2018-09-25T19:57:54.971Z,9.13
2018-09-25T20:00:28.082Z,21.37
2018-09-25T20:03:01.216Z,24.27
2018-09-25T20:05:34.222Z,5.63
2018-09-25T20:08:07.967Z,8.40
2018-09-25T20:10:41.404Z,18.83
2018-09-25T20:13:14.760Z,8.80
2018-09-25T20:15:48.597Z,11.67
2018-09-25T20:18:21.842Z,13.23
2018-09-25T20:20:55.036Z,15.70
2018-09-25T20:23:29.317Z,8.93
2018-09-25T20:26:02.948Z,6.17
2018-09-25T20:28:36.134Z,23.23
2018-09-25T20:31:10.695Z,13.23
2018-09-25T20:33:46.855Z,14.37
2018-09-25T20:36:20.373Z,7.67
2018-09-25T20:38:54.913Z,14.03
2018-09-25T20:41:28.488Z,8.13
2018-09-25T20:44:02.001Z,19.77
2018-09-25T20:46:35.234Z,17.37
2018-09-25T20:49:08.528Z,20.97
2018-09-25T20:51:43.288Z,22.03
2018-09-25T20:54:20.396Z,15.73
2018-09-25T20:56:55.653Z,12.23
2018-09-25T20:59:28.861Z,15.40
2018-09-25T21:02:02.872Z,19.00
2018-09-25T21:04:35.922Z,12.40
2018-09-25T21:07:09.089Z,14.07
2018-09-25T21:09:42.284Z,14.80
2018-09-25T21:12:15.523Z,14.90
2018-09-25T21:14:48.563Z,28.43
2018-09-25T21:17:22.545Z,33.33
2018-09-25T21:19:55.939Z,22.77
2018-09-25T21:22:29.600Z,13.33
2018-09-25T21:25:03.279Z,34.27
2018-09-25T21:27:36.565Z,16.43
2018-09-25T21:30:09.953Z,9.80
2018-09-25T21:32:42.884Z,6.87
2018-09-25T21:35:16.228Z,8.53
2018-09-25T21:37:49.426Z,19.50
2018-09-25T21:40:22.672Z,7.47
2018-09-25T21:42:55.799Z,18.67
2018-09-25T21:45:28.887Z,5.37
2018-09-25T21:48:02.085Z,10.33
2018-09-25T21:50:35.913Z,7.17
2018-09-25T21:53:08.926Z,10.00
2018-09-25T21:55:42.392Z,5.43
2018-09-25T21:58:15.562Z,8.03
2018-09-25T22:00:48.769Z,5.17
2018-09-25T22:03:22.048Z,2.47
2018-09-25T22:05:55.494Z,6.23
2018-09-25T22:08:28.671Z,3.80
2018-09-25T22:11:01.935Z,2.00
2018-09-25T22:13:38.507Z,8.57
2018-09-25T22:16:12.173Z,7.27
2018-09-25T22:18:45.385Z,4.00
2018-09-25T22:21:18.715Z,6.07
2018-09-25T22:23:52.401Z,3.60
2018-09-25T22:26:25.587Z,5.53
2018-09-25T22:28:58.789Z,5.53
2018-09-25T22:31:32.081Z,5.40
2018-09-25T22:34:05.925Z,7.20
2018-09-25T22:36:39.084Z,2.70
2018-09-25T22:39:14.224Z,7.60
2018-09-25T22:41:47.331Z,6.30
2018-09-25T22:44:20.595Z,7.80
2018-09-25T22:46:53.732Z,13.83
2018-09-25T22:49:28.022Z,4.63
2018-09-25T22:52:01.305Z,3.10
2018-09-25T22:54:34.775Z,4.40
2018-09-25T22:57:08.033Z,3.43
2018-09-25T22:59:41.184Z,6.20
2018-09-25T23:02:14.540Z,2.60
2018-09-25T23:04:47.552Z,4.63
2018-09-25T23:07:21.571Z,8.63
2018-09-25T23:09:54.618Z,3.40
2018-09-25T23:12:27.854Z,5.90
2018-09-25T23:15:01.057Z,14.03
2018-09-25T23:17:34.355Z,5.13
2018-09-25T23:20:07.548Z,8.33
2018-09-25T23:22:40.715Z,5.20
2018-09-25T23:25:13.919Z,9.33
2018-09-25T23:27:47.072Z,40.63
2018-09-25T23:30:20.297Z,17.37
2018-09-25T23:32:53.405Z,11.50
2018-09-25T23:35:26.700Z,5.27
2018-09-25T23:38:00.189Z,11.83
2018-09-25T23:40:34.437Z,2.80
2018-09-25T23:43:07.140Z,6.33
2018-09-25T23:45:56.454Z,3.53
2018-09-25T23:48:31.569Z,5.90
2018-09-25T23:51:04.387Z,4.77
2018-09-25T23:53:36.247Z,6.90
2018-09-25T23:56:12.534Z,9.17
2018-09-25T23:58:42.936Z,11.33
